Terminal Aerodrome Forecast
Issued by NWS Cheyenne, WY

Home | Current Version | Previous Version | Text Only | Print | Product List | Glossary On
Versions: 1 2 3 4 5 6 7 8 9 10 11 12 13 14 15 16 17 18 19 20 21 22 23 24 25
000
FTUS45 KCYS 291221 CCA
TAFCYS
TAF COR
KCYS 291221Z 2912/3012 23008KT 6SM BR SCT007
      TEMPO 2912/2915 3SM BR
     FM291600 17010KT P6SM SCT050
     FM292000 15011G18KT P6SM VCTS SCT060CB BKN100
     FM300200 17009KT P6SM SCT100=

USA.gov is the U.S. government's official web portal to all federal, state and local government web resources and services.